createdAt,value
2019-06-08T00:18:05.707Z,66.45
2019-06-08T00:38:15.157Z,66.74
2019-06-08T01:19:31.926Z,67.79
2019-06-08T01:39:41.113Z,68.00
2019-06-08T01:59:52.256Z,68.18
2019-06-08T02:20:02.889Z,68.34
2019-06-08T02:40:13.872Z,67.98
2019-06-08T03:00:26.571Z,68.25
2019-06-08T03:20:37.729Z,68.33
2019-06-08T03:40:47.576Z,69.21
2019-06-08T04:01:01.894Z,69.30
2019-06-08T04:21:11.868Z,68.70
2019-06-08T04:41:23.035Z,63.60
2019-06-08T05:01:32.088Z,57.16
2019-06-08T05:21:41.551Z,50.39
2019-06-08T05:41:51.265Z,44.94
2019-06-08T06:02:01.410Z,42.62
2019-06-08T06:22:11.532Z,43.54
2019-06-08T06:42:24.614Z,44.45
2019-06-08T07:02:45.748Z,44.75
2019-06-08T07:23:14.809Z,46.00
2019-06-08T07:43:23.965Z,43.92
2019-06-08T08:03:35.198Z,43.95
2019-06-08T08:23:47.866Z,42.94
2019-06-08T11:10:03.798Z,34.79
2019-06-08T11:30:23.388Z,34.00
2019-06-08T11:50:42.401Z,35.07
2019-06-08T12:11:02.079Z,37.27
2019-06-08T12:31:16.813Z,33.88
2019-06-08T12:51:21.702Z,38.27
2019-06-08T13:11:32.715Z,38.27
2019-06-08T13:31:42.037Z,34.87
2019-06-08T13:51:52.483Z,37.37
2019-06-08T14:12:02.813Z,36.98
2019-06-08T14:32:12.050Z,34.55
2019-06-08T14:52:22.700Z,34.74
2019-06-08T15:12:33.455Z,35.88
2019-06-08T15:32:42.853Z,39.07
2019-06-08T15:52:51.629Z,42.96
2019-06-08T16:13:00.957Z,45.25
2019-06-08T16:33:10.674Z,43.99
2019-06-08T16:53:19.000Z,45.22
2019-06-08T17:13:31.869Z,46.77
2019-06-08T17:33:47.111Z,47.94
2019-06-08T17:54:03.712Z,47.94
2019-06-08T18:14:13.098Z,48.28
2019-06-08T18:34:21.681Z,48.59
2019-06-08T18:54:30.752Z,49.73
2019-06-08T19:14:41.023Z,51.11
2019-06-08T19:34:54.902Z,52.67
2019-06-08T19:55:08.772Z,53.50
2019-06-08T20:15:18.729Z,54.60
2019-06-08T20:35:28.182Z,55.17
2019-06-08T20:55:37.408Z,55.77
2019-06-08T21:15:50.651Z,56.28
2019-06-08T21:36:04.693Z,57.77
2019-06-08T21:56:10.850Z,58.40
2019-06-08T22:16:19.541Z,57.55
2019-06-08T22:36:29.032Z,57.73
2019-06-08T22:56:38.206Z,58.52
2019-06-08T23:16:47.305Z,59.28
2019-06-08T23:37:00.033Z,59.75
2019-06-08T23:57:12.348Z,60.11
